KSNS/SNS METAR and TAF weather

Enter ICAO airport designator
Station Type Date Time Source
KSNS METAR 2020/01/22 14:53 UTC NOAA

KSNS 221453Z 13006KT 10SM OVC025 12/09 A3023 RMK VOR RWY13


Station Type Date Time Source
KSNS Decoded METAR 2020/01/22 14:53 UTC NOAA

SALINAS MUNICIPAL AIRPORT, CA, United States (KSNS) 36-40N 121-36W 30M
Jan 22, 2020 - 09:53 AM EST / 2020.01.22 1453 UTC
Wind: from the SE (130 degrees) at 7 MPH (6 KT):0
Visibility: 10 mile(s):0
Sky conditions: overcast
Temperature: 53 F (12 C)
Dew Point: 48 F (9 C)
Relative Humidity: 81%
Pressure (altimeter): 30.23 in. Hg (1023 hPa)
ob: KSNS 221453Z 13006KT 10SM OVC025 12/09 A3023 RMK VOR RWY13
cycle: 15

Station Type Date Time Source
KSNS TAF 2020/01/23 06:42 UTC NOAA

TAF KSNS 230540Z 2306/2406 11004KT 6SM BR FEW007
FM231200 11006KT 6SM BR SCT006
TEMPO 2313/2317 2SM BR BKN005
FM231700 12007KT P6SM FEW010 BKN120
FM232200 30006KT P6SM FEW015 BKN120
FM240300 VRB03KT P6SM BKN120

Example: see airport list